createdAt,value
2022-12-23T00:05:16.893Z,41.20
2022-12-23T00:12:33.934Z,29.08
2022-12-23T02:32:43.514Z,14.13
2022-12-23T02:36:21.814Z,36.95
2022-12-23T02:43:25.454Z,80.68
2022-12-23T03:37:50.885Z,21.98
2022-12-23T03:45:37.439Z,35.42
2022-12-23T04:42:08.381Z,14.60
2022-12-23T05:36:47.289Z,54.78
2022-12-23T05:40:04.035Z,42.03
2022-12-23T05:46:36.680Z,33.55
2022-12-23T05:49:50.468Z,41.30
2022-12-23T05:53:03.068Z,47.05
2022-12-23T05:56:22.356Z,62.67
2022-12-23T05:59:32.193Z,43.78
2022-12-23T06:02:42.346Z,48.60
2022-12-23T06:05:53.777Z,72.28
2022-12-23T06:09:02.994Z,47.97
2022-12-23T06:12:13.517Z,26.67
2022-12-23T06:15:19.187Z,38.60
2022-12-23T06:18:23.120Z,37.30
2022-12-23T06:21:27.649Z,50.90
2022-12-23T06:24:30.974Z,45.28
2022-12-23T06:27:35.388Z,66.32
2022-12-23T06:30:40.280Z,51.78
2022-12-23T06:33:44.555Z,38.00
2022-12-23T06:36:47.673Z,50.13
2022-12-23T06:39:50.788Z,34.95
2022-12-23T06:42:54.617Z,56.72
2022-12-23T06:46:02.486Z,51.83
2022-12-23T06:49:13.698Z,50.88
2022-12-23T06:52:25.406Z,44.75
2022-12-23T06:55:35.344Z,45.15
2022-12-23T06:58:45.111Z,24.77
2022-12-23T07:01:56.552Z,44.70
2022-12-23T07:05:06.537Z,30.10
2022-12-23T07:08:17.427Z,36.38
2022-12-23T07:11:28.089Z,50.55
2022-12-23T07:14:39.192Z,56.17
2022-12-23T07:17:49.037Z,52.85
2022-12-23T07:21:21.150Z,60.45
2022-12-23T07:24:34.736Z,77.55
2022-12-23T07:27:46.344Z,78.82
2022-12-23T07:30:56.683Z,82.38
2022-12-23T07:34:06.736Z,101.30
2022-12-23T07:37:12.023Z,88.43
2022-12-23T07:40:16.016Z,127.70
2022-12-23T07:43:19.672Z,105.50
2022-12-23T07:46:23.595Z,106.63
2022-12-23T07:49:27.278Z,106.60
2022-12-23T07:52:31.241Z,121.07
2022-12-23T07:55:34.974Z,89.53
2022-12-23T07:58:39.341Z,117.57
2022-12-23T08:01:45.116Z,108.47
2022-12-23T08:04:49.394Z,112.43
2022-12-23T08:07:53.615Z,85.85
2022-12-23T08:11:02.536Z,195.55
2022-12-23T08:14:06.280Z,128.63
2022-12-23T08:17:10.095Z,110.10
2022-12-23T08:20:14.075Z,93.47
2022-12-23T08:23:22.954Z,169.57
2022-12-23T08:26:27.899Z,104.80
2022-12-23T08:29:36.017Z,129.27
2022-12-23T08:32:39.437Z,66.05
2022-12-23T08:35:42.818Z,132.95
2022-12-23T08:38:46.886Z,137.23
2022-12-23T08:41:51.250Z,130.80
2022-12-23T08:44:54.910Z,65.25
2022-12-23T08:48:00.752Z,79.03
2022-12-23T08:51:06.999Z,87.18
2022-12-23T08:54:11.620Z,50.23
2022-12-23T08:57:15.340Z,70.55
2022-12-23T09:00:19.887Z,63.72
2022-12-23T09:03:23.757Z,48.65
2022-12-23T09:06:32.924Z,21.05
2022-12-23T09:09:41.759Z,29.50
2022-12-23T09:12:53.312Z,21.02
2022-12-23T09:16:00.962Z,25.10
2022-12-23T09:19:07.761Z,23.65
2022-12-23T09:22:11.177Z,33.00
2022-12-23T09:29:04.947Z,17.60
2022-12-23T09:32:15.832Z,60.28
2022-12-23T09:35:27.242Z,109.35
2022-12-23T09:38:43.078Z,99.22
2022-12-23T09:42:27.421Z,92.68
2022-12-23T09:46:17.356Z,152.63
2022-12-23T09:49:29.391Z,65.25
2022-12-23T09:52:58.154Z,102.40
2022-12-23T09:56:14.497Z,102.43
2022-12-23T09:59:43.067Z,64.55
2022-12-23T10:03:20.441Z,77.55
2022-12-23T10:06:28.637Z,52.53
2022-12-23T10:09:40.945Z,45.92
2022-12-23T10:12:50.837Z,59.50
2022-12-23T10:15:58.954Z,53.78
2022-12-23T10:19:29.571Z,58.00
2022-12-23T10:22:42.581Z,91.28
2022-12-23T10:25:52.212Z,115.00
2022-12-23T10:29:02.484Z,101.80
2022-12-23T10:32:26.531Z,125.93
2022-12-23T10:35:49.303Z,100.35
2022-12-23T10:39:20.901Z,98.82
2022-12-23T10:42:33.315Z,71.25
2022-12-23T10:46:01.110Z,58.75
2022-12-23T10:49:28.955Z,70.22
2022-12-23T10:52:41.680Z,88.38
2022-12-23T10:55:52.458Z,76.53
2022-12-23T10:59:05.387Z,46.50
2022-12-23T11:02:17.134Z,77.90
2022-12-23T11:05:31.216Z,71.53
2022-12-23T11:08:41.569Z,78.45
2022-12-23T11:12:12.016Z,110.70
2022-12-23T11:15:36.832Z,118.72
2022-12-23T11:19:11.451Z,63.58
2022-12-23T11:22:32.166Z,70.43
2022-12-23T11:25:48.555Z,74.32
2022-12-23T11:29:08.157Z,84.95
2022-12-23T11:32:32.331Z,67.93
2022-12-23T11:35:43.254Z,70.70
2022-12-23T11:39:31.566Z,71.93
2022-12-23T11:42:45.501Z,81.72
2022-12-23T11:46:18.661Z,32.30
2022-12-23T11:49:29.511Z,69.65
2022-12-23T11:52:34.602Z,69.22
2022-12-23T12:11:02.725Z,64.03
2022-12-23T12:14:31.580Z,41.33
2022-12-23T12:36:00.276Z,45.03
2022-12-23T12:43:40.372Z,38.95
2022-12-23T12:47:57.023Z,98.40
2022-12-23T13:00:05.571Z,51.10
2022-12-23T13:03:23.988Z,80.18
2022-12-23T13:07:21.301Z,64.50
2022-12-23T13:10:44.071Z,43.30
2022-12-23T13:14:00.830Z,63.55
2022-12-23T13:17:13.393Z,69.30
2022-12-23T13:20:45.993Z,114.18
2022-12-23T13:24:23.674Z,77.75
2022-12-23T13:27:39.472Z,122.93
2022-12-23T13:30:56.457Z,199.45
2022-12-23T13:34:38.636Z,157.88
2022-12-23T13:37:57.118Z,187.85
2022-12-23T13:41:01.505Z,227.52
2022-12-23T13:44:08.551Z,168.27
2022-12-23T13:47:25.113Z,193.13
2022-12-23T13:50:58.663Z,239.77
2022-12-23T13:54:23.927Z,121.47
2022-12-23T13:57:39.867Z,142.35
2022-12-23T14:00:43.782Z,127.05
2022-12-23T14:03:50.787Z,144.55
2022-12-23T14:06:57.985Z,116.90
2022-12-23T14:10:22.122Z,139.65
2022-12-23T14:13:34.771Z,129.95
2022-12-23T14:17:24.790Z,126.65
2022-12-23T14:20:52.320Z,134.88
2022-12-23T14:24:22.345Z,126.00
2022-12-23T14:27:32.350Z,118.45
2022-12-23T14:30:41.108Z,138.50
2022-12-23T14:33:49.401Z,129.48
2022-12-23T14:37:25.275Z,124.85
2022-12-23T14:40:38.270Z,106.30
2022-12-23T14:43:45.619Z,139.63
2022-12-23T14:46:49.322Z,108.18
2022-12-23T14:49:53.791Z,106.43
2022-12-23T14:53:16.411Z,110.65
2022-12-23T14:56:20.408Z,92.97
2022-12-23T14:59:30.636Z,161.55
2022-12-23T15:02:40.056Z,230.02
2022-12-23T15:05:44.112Z,201.55
2022-12-23T15:08:49.840Z,238.38
2022-12-23T15:11:56.031Z,181.43
2022-12-23T15:15:17.389Z,189.60
2022-12-23T15:18:20.703Z,189.35
2022-12-23T15:21:34.203Z,146.68
2022-12-23T15:24:37.166Z,126.60
2022-12-23T15:27:40.517Z,144.95
2022-12-23T15:30:56.178Z,112.32
2022-12-23T15:34:16.791Z,96.47
2022-12-23T15:37:29.002Z,151.05
2022-12-23T15:40:38.233Z,246.38
2022-12-23T15:43:43.480Z,146.20
2022-12-23T15:46:46.832Z,170.02
2022-12-23T15:49:50.482Z,137.27
2022-12-23T15:52:56.768Z,126.25
2022-12-23T15:56:35.150Z,144.45
2022-12-23T15:59:39.965Z,157.67
2022-12-23T16:03:01.731Z,223.30
2022-12-23T16:06:20.893Z,121.80
2022-12-23T16:09:36.738Z,156.40
2022-12-23T16:12:42.113Z,134.70
2022-12-23T16:15:45.772Z,154.55
2022-12-23T16:18:50.126Z,162.38
2022-12-23T16:21:54.965Z,132.82
2022-12-23T16:25:19.197Z,92.97
2022-12-23T16:28:29.164Z,125.07
2022-12-23T16:31:35.217Z,119.05
2022-12-23T16:34:39.619Z,107.63
2022-12-23T16:37:49.257Z,166.02
2022-12-23T16:40:57.030Z,159.57
2022-12-23T16:44:00.974Z,105.28
2022-12-23T16:47:16.062Z,187.43
2022-12-23T16:50:19.758Z,87.35
2022-12-23T16:53:24.574Z,122.88
2022-12-23T16:56:31.065Z,124.90
2022-12-23T16:59:35.009Z,178.73
2022-12-23T17:02:39.043Z,148.25
2022-12-23T17:05:43.378Z,133.52
2022-12-23T17:08:47.785Z,183.93
2022-12-23T17:11:54.231Z,109.57
2022-12-23T17:14:58.405Z,199.83
2022-12-23T17:18:02.086Z,231.75
2022-12-23T17:21:06.298Z,135.38
2022-12-23T17:24:15.394Z,100.43
2022-12-23T17:27:21.656Z,266.70
2022-12-23T17:30:26.489Z,127.50
2022-12-23T17:33:32.956Z,119.45
2022-12-23T17:36:37.384Z,226.82
2022-12-23T17:39:42.873Z,240.75
2022-12-23T17:42:48.439Z,254.68
2022-12-23T17:45:53.793Z,172.45
2022-12-23T17:48:59.983Z,100.95
2022-12-23T17:52:07.995Z,109.93
2022-12-23T17:55:32.617Z,140.93
2022-12-23T17:58:37.722Z,88.25
2022-12-23T18:01:42.344Z,204.63
2022-12-23T18:04:47.372Z,159.18
2022-12-23T18:07:52.324Z,160.95
2022-12-23T18:10:58.296Z,184.15
2022-12-23T18:14:03.898Z,89.40
2022-12-23T18:17:15.401Z,159.95
2022-12-23T18:20:23.643Z,149.15
2022-12-23T18:23:34.479Z,125.70
2022-12-23T18:26:38.841Z,150.43
2022-12-23T18:29:44.671Z,199.13
2022-12-23T18:32:49.819Z,116.60
2022-12-23T18:35:54.797Z,168.73
2022-12-23T18:39:00.567Z,150.27
2022-12-23T18:42:06.264Z,62.30
2022-12-23T18:45:31.552Z,153.68
2022-12-23T18:48:37.452Z,175.50
2022-12-23T18:51:42.764Z,95.30
2022-12-23T18:54:48.250Z,154.80
2022-12-23T18:57:52.897Z,135.90
2022-12-23T19:00:58.098Z,133.73
2022-12-23T19:04:02.239Z,159.68
2022-12-23T19:07:06.921Z,144.75
2022-12-23T19:10:14.297Z,121.53
2022-12-23T19:13:18.628Z,172.23
2022-12-23T19:16:23.831Z,118.07
2022-12-23T19:19:28.038Z,148.63
2022-12-23T19:22:31.955Z,142.88
2022-12-23T19:25:36.353Z,153.30
2022-12-23T19:28:42.035Z,101.40
2022-12-23T19:31:46.148Z,106.38
2022-12-23T19:34:50.573Z,127.68
2022-12-23T19:37:54.789Z,75.38
2022-12-23T19:40:59.638Z,120.03
2022-12-23T19:44:04.836Z,95.60
2022-12-23T19:47:09.091Z,141.68
2022-12-23T19:50:13.483Z,106.00
2022-12-23T19:53:18.315Z,73.85
2022-12-23T19:56:22.555Z,76.85
2022-12-23T19:59:26.744Z,80.97
2022-12-23T20:02:30.569Z,108.97
2022-12-23T20:05:34.895Z,123.10
2022-12-23T20:08:38.633Z,102.78
2022-12-23T20:11:46.054Z,78.35
2022-12-23T20:14:49.983Z,133.23
2022-12-23T20:17:54.011Z,82.70
2022-12-23T20:20:58.846Z,178.48
2022-12-23T20:24:03.465Z,68.18
2022-12-23T20:27:11.385Z,84.85
2022-12-23T20:30:16.794Z,99.45
2022-12-23T20:33:20.484Z,154.95
2022-12-23T20:36:28.844Z,121.22
2022-12-23T20:39:32.673Z,186.30
2022-12-23T20:42:36.801Z,129.10
2022-12-23T20:45:43.464Z,86.70
2022-12-23T20:48:48.066Z,117.97
2022-12-23T20:51:51.776Z,179.73
2022-12-23T20:54:57.051Z,102.78
2022-12-23T20:58:22.851Z,96.70
2022-12-23T21:01:38.431Z,108.82
2022-12-23T21:04:42.414Z,101.45
2022-12-23T21:07:46.230Z,130.30
2022-12-23T21:10:55.403Z,180.68
2022-12-23T21:14:06.367Z,80.90
2022-12-23T21:17:11.527Z,58.83
2022-12-23T21:20:15.994Z,76.15
2022-12-23T21:23:20.405Z,99.88
2022-12-23T21:26:27.284Z,76.90
2022-12-23T21:29:32.013Z,125.15
2022-12-23T21:32:37.766Z,102.10
2022-12-23T21:35:44.949Z,71.85
2022-12-23T21:38:52.251Z,40.30
2022-12-23T21:42:00.461Z,93.85
2022-12-23T21:45:06.848Z,90.63
2022-12-23T21:48:12.675Z,76.20
2022-12-23T21:51:39.568Z,75.55
2022-12-23T21:54:45.720Z,31.35
2022-12-23T21:57:51.443Z,51.03
2022-12-23T22:00:56.474Z,63.97
2022-12-23T22:04:02.368Z,27.33
2022-12-23T22:07:08.412Z,99.88
2022-12-23T22:10:14.986Z,62.30
2022-12-23T22:13:20.526Z,96.70
2022-12-23T22:16:28.202Z,58.63
2022-12-23T22:19:33.476Z,56.70
2022-12-23T22:22:39.280Z,70.55
2022-12-23T22:25:44.799Z,84.90
2022-12-23T22:28:50.228Z,53.65
2022-12-23T22:31:56.005Z,85.13
2022-12-23T22:35:02.260Z,43.67
2022-12-23T22:38:07.176Z,54.80
2022-12-23T22:41:12.617Z,98.80
2022-12-23T22:44:17.702Z,109.78
2022-12-23T22:47:23.309Z,69.90
2022-12-23T22:50:27.559Z,84.30
2022-12-23T22:53:32.582Z,76.38
2022-12-23T22:56:38.044Z,57.38
2022-12-23T22:59:43.250Z,32.70
2022-12-23T23:02:48.004Z,30.35
2022-12-23T23:06:08.921Z,40.92
2022-12-23T23:09:17.617Z,58.33
2022-12-23T23:12:21.961Z,58.90
2022-12-23T23:15:26.073Z,101.03
2022-12-23T23:18:31.501Z,50.53
2022-12-23T23:21:35.129Z,62.72
2022-12-23T23:24:39.472Z,113.15
2022-12-23T23:27:43.672Z,91.65
2022-12-23T23:30:47.024Z,78.90
2022-12-23T23:33:50.428Z,101.30
2022-12-23T23:36:55.005Z,60.83
2022-12-23T23:39:58.796Z,53.08
2022-12-23T23:43:02.687Z,83.80
2022-12-23T23:46:06.353Z,74.68
2022-12-23T23:49:10.409Z,108.80
2022-12-23T23:52:14.301Z,82.22
2022-12-23T23:55:20.725Z,114.22
2022-12-23T23:58:24.574Z,62.47
